Time;durP1;ratioP1;P1;durP2;ratioP2;P2;SDS_P1;SDS_P2;PMS_P1;PMS_P2;Temp;Humidity;BMP_temperature;BMP_pressure;BME280_temperature;BME280_humidity;BME280_pressure;Samples;Min_cycle;Max_cycle;Signal;HPM_P1;HPM_P2
2021/06/10 06:53:58;;;;;;;58.00;7.40;;;;;;;;;;5623988;22;20081;-52
2021/06/10 06:56:25;;;;;;;5.80;4.47;;;;;;;;;;4987525;28;20143;-53
2021/06/10 06:58:52;;;;;;;8.27;5.13;;;;;;;;;;4991033;28;20097;-47
2021/06/10 07:01:18;;;;;;;7.57;4.95;;;;;;;;;;4974557;28;20057;-48
2021/06/10 07:03:44;;;;;;;5.27;4.33;;;;;;;;;;4993500;28;20022;-48
2021/06/10 07:06:10;;;;;;;5.50;4.75;;;;;;;;;;5002724;28;20086;-47
2021/06/10 07:08:36;;;;;;;5.32;4.82;;;;;;;;;;4991914;28;20097;-49
2021/06/10 07:11:03;;;;;;;6.43;5.05;;;;;;;;;;4991953;28;20030;-48
2021/06/10 07:13:29;;;;;;;4.70;4.00;;;;;;;;;;4974128;28;20484;-46
2021/06/10 07:15:55;;;;;;;7.70;5.17;;;;;;;;;;4991636;28;20041;-52
2021/06/10 07:18:21;;;;;;;8.90;4.63;;;;;;;;;;4991770;28;20312;-50
2021/06/10 07:20:47;;;;;;;5.40;4.68;;;;;;;;;;4992072;28;20015;-58
2021/06/10 07:23:14;;;;;;;5.65;4.13;;;;;;;;;;4990872;28;20026;-47
2021/06/10 07:25:40;;;;;;;5.45;3.90;;;;;;;;;;4991935;28;20420;-56
2021/06/10 07:28:06;;;;;;;5.07;3.97;;;;;;;;;;4983554;28;20042;-54
2021/06/10 07:30:32;;;;;;;4.80;3.92;;;;;;;;;;4989922;28;20482;-52
2021/06/10 07:32:58;;;;;;;6.90;4.07;;;;;;;;;;4972558;28;20049;-54
2021/06/10 07:35:25;;;;;;;6.53;3.83;;;;;;;;;;4972673;28;20030;-55
2021/06/10 07:37:52;;;;;;;4.67;3.43;;;;;;;;;;4990785;28;20022;-47
2021/06/10 07:40:19;;;;;;;4.43;4.03;;;;;;;;;;4972791;28;20018;-51
2021/06/10 07:42:45;;;;;;;4.72;3.65;;;;;;;;;;4972119;28;20069;-54
2021/06/10 07:45:11;;;;;;;7.57;4.10;;;;;;;;;;4970696;28;20049;-55
2021/06/10 07:47:38;;;;;;;6.25;3.08;;;;;;;;;;4972778;28;20105;-55
2021/06/10 07:50:05;;;;;;;4.50;3.20;;;;;;;;;;4973746;28;20022;-57
2021/06/10 07:52:32;;;;;;;4.30;3.20;;;;;;;;;;4972479;28;20071;-58
2021/06/10 07:54:58;;;;;;;5.25;3.40;;;;;;;;;;4989809;28;22023;-56
2021/06/10 07:57:24;;;;;;;4.53;3.35;;;;;;;;;;4990500;28;20037;-57
2021/06/10 07:59:50;;;;;;;4.30;2.83;;;;;;;;;;4992536;28;20027;-53
2021/06/10 08:02:16;;;;;;;3.93;2.80;;;;;;;;;;4990367;28;20033;-55
2021/06/10 08:04:42;;;;;;;3.07;2.57;;;;;;;;;;5000627;28;20255;-53
2021/06/10 08:07:09;;;;;;;4.40;2.95;;;;;;;;;;4993499;28;20462;-54
2021/06/10 08:09:35;;;;;;;5.32;2.92;;;;;;;;;;4990809;28;20165;-55
2021/06/10 08:12:02;;;;;;;3.38;3.00;;;;;;;;;;4973249;28;20351;-57
2021/06/10 08:14:28;;;;;;;4.18;3.10;;;;;;;;;;4978312;28;20113;-54
2021/06/10 08:16:54;;;;;;;4.10;3.07;;;;;;;;;;4976858;28;20387;-50
2021/06/10 08:19:20;;;;;;;4.45;3.00;;;;;;;;;;4990110;28;20394;-53
2021/06/10 08:21:46;;;;;;;4.05;2.92;;;;;;;;;;4992050;28;20014;-55
2021/06/10 08:24:15;;;;;;;4.10;3.20;;;;;;;;;;4995347;28;20018;-55
2021/06/10 08:26:42;;;;;;;3.25;2.95;;;;;;;;;;4984735;28;20027;-50
2021/06/10 08:29:09;;;;;;;4.10;3.30;;;;;;;;;;4965502;28;20030;-47
2021/06/10 08:31:36;;;;;;;3.55;2.60;;;;;;;;;;4990637;28;20045;-45
2021/06/10 08:34:02;;;;;;;2.95;2.28;;;;;;;;;;4990319;28;20059;-47
2021/06/10 08:36:28;;;;;;;3.78;2.20;;;;;;;;;;4989880;28;20058;-48
2021/06/10 08:38:54;;;;;;;4.47;2.03;;;;;;;;;;4987542;28;20117;-48
2021/06/10 08:41:20;;;;;;;2.58;2.00;;;;;;;;;;4989995;28;20112;-47
2021/06/10 08:43:46;;;;;;;3.43;1.90;;;;;;;;;;4990222;28;20086;-45
2021/06/10 08:46:14;;;;;;;3.28;1.88;;;;;;;;;;4977177;28;20134;-45
2021/06/10 08:48:43;;;;;;;2.55;1.70;;;;;;;;;;4993276;28;20018;-47
2021/06/10 08:51:10;;;;;;;1.90;1.63;;;;;;;;;;4975896;28;20180;-46
2021/06/10 08:53:37;;;;;;;2.45;1.63;;;;;;;;;;4989807;28;20520;-47
2021/06/10 08:56:03;;;;;;;2.47;2.10;;;;;;;;;;4997140;28;20022;-48
2021/06/10 08:58:30;;;;;;;4.05;2.40;;;;;;;;;;4977483;28;20445;-50
2021/06/10 09:00:57;;;;;;;4.72;2.03;;;;;;;;;;4977481;28;20033;-50
2021/06/10 09:03:29;;;;;;;4.03;1.88;;;;;;;;;;4990418;28;20018;-46
2021/06/10 09:06:12;;;;;;;2.80;1.50;;;;;;;;;;4990532;28;20073;-47
2021/06/10 09:08:40;;;;;;;2.10;1.20;;;;;;;;;;4978814;28;20383;-47
2021/06/10 09:11:07;;;;;;;2.80;1.35;;;;;;;;;;4990038;28;20021;-46
2021/06/10 09:13:38;;;;;;;2.17;1.33;;;;;;;;;;4972362;28;20427;-47
2021/06/10 09:16:17;;;;;;;2.38;1.23;;;;;;;;;;4990230;28;20025;-50
2021/06/10 09:19:12;;;;;;;2.55;1.55;;;;;;;;;;4989388;28;20038;-49
2021/06/10 09:21:46;;;;;;;2.88;1.50;;;;;;;;;;4988272;28;20026;-47
2021/06/10 09:24:21;;;;;;;2.33;1.35;;;;;;;;;;4975174;28;20443;-48
2021/06/10 09:26:54;;;;;;;2.65;1.60;;;;;;;;;;4989780;28;20022;-47
2021/06/10 09:29:21;;;;;;;3.05;1.33;;;;;;;;;;4977624;28;20018;-49
2021/06/10 09:31:49;;;;;;;1.93;1.30;;;;;;;;;;4990521;28;20065;-48
2021/06/10 09:34:17;;;;;;;1.90;1.50;;;;;;;;;;4989710;28;20486;-48
2021/06/10 09:36:46;;;;;;;4.15;1.80;;;;;;;;;;4990022;28;20022;-48
2021/06/10 09:39:23;;;;;;;3.80;1.70;;;;;;;;;;4970880;28;20462;-47
2021/06/10 09:41:49;;;;;;;;;;;;;;;;;;4971272;28;20478;-48
2021/06/10 09:44:35;;;;;;;2.92;2.00;;;;;;;;;;4971274;28;19941;-47
2021/06/10 09:47:05;;;;;;;1.85;1.40;;;;;;;;;;4976912;28;20186;-48
2021/06/10 09:49:31;;;;;;;3.55;1.52;;;;;;;;;;4988773;28;20484;-47
2021/06/10 09:51:57;;;;;;;2.15;1.50;;;;;;;;;;4988313;28;20364;-49
2021/06/10 09:54:39;;;;;;;2.20;1.50;;;;;;;;;;4988414;28;20046;-47
2021/06/10 09:57:05;;;;;;;2.53;1.35;;;;;;;;;;4990370;28;20098;-46
2021/06/10 09:59:41;;;;;;;3.37;1.60;;;;;;;;;;4992179;28;20026;-46
2021/06/10 10:02:26;;;;;;;4.40;1.73;;;;;;;;;;4984474;28;20046;-54
2021/06/10 10:04:58;;;;;;;3.20;1.25;;;;;;;;;;4970879;28;20027;-53
2021/06/10 10:07:26;;;;;;;1.70;1.15;;;;;;;;;;5002002;28;20027;-53
2021/06/10 10:09:52;;;;;;;1.77;1.27;;;;;;;;;;4991842;28;20023;-52
2021/06/10 10:12:19;;;;;;;1.60;1.07;;;;;;;;;;4974559;28;20022;-53
2021/06/10 10:14:45;;;;;;;;;;;;;;;;;;4974559;28;20179;-51
2021/06/10 10:17:12;;;;;;;2.45;1.52;;;;;;;;;;4992499;28;20015;-53
2021/06/10 10:19:38;;;;;;;1.85;1.20;;;;;;;;;;4992664;28;20105;-53
2021/06/10 10:22:10;;;;;;;1.63;1.20;;;;;;;;;;4992212;28;20100;-53
2021/06/10 10:24:36;;;;;;;1.58;0.95;;;;;;;;;;4973782;28;20030;-54
2021/06/10 10:27:02;;;;;;;2.38;1.30;;;;;;;;;;4974032;28;20018;-55
2021/06/10 10:29:28;;;;;;;1.80;1.08;;;;;;;;;;4991951;28;20130;-51
2021/06/10 10:31:54;;;;;;;1.77;1.10;;;;;;;;;;4990997;28;20642;-50
2021/06/10 10:34:25;;;;;;;1.40;1.05;;;;;;;;;;4991362;28;20102;-50
2021/06/10 10:36:52;;;;;;;1.83;1.13;;;;;;;;;;4991233;28;20025;-49
2021/06/10 10:39:28;;;;;;;2.00;1.25;;;;;;;;;;4974254;28;20038;-52
2021/06/10 10:41:55;;;;;;;2.15;1.30;;;;;;;;;;4962339;28;20026;-54
2021/06/10 10:44:22;;;;;;;;;;;;;;;;;;4991572;28;20197;-50
2021/06/10 10:47:00;;;;;;;1.80;1.27;;;;;;;;;;4996643;28;20068;-51
2021/06/10 10:49:29;;;;;;;1.45;1.00;;;;;;;;;;4980336;28;20030;-51
2021/06/10 10:51:55;;;;;;;1.50;1.10;;;;;;;;;;4974226;28;20018;-50
2021/06/10 10:54:33;;;;;;;2.00;1.30;;;;;;;;;;4973781;28;20363;-51
2021/06/10 10:56:59;;;;;;;1.30;1.05;;;;;;;;;;4991501;28;20088;-52
2021/06/10 10:59:25;;;;;;;2.15;1.10;;;;;;;;;;4991238;28;20516;-50
2021/06/10 11:02:08;;;;;;;1.23;1.08;;;;;;;;;;4991550;28;20113;-51
2021/06/10 11:04:53;;;;;;;2.03;1.40;;;;;;;;;;4993580;28;20077;-51
2021/06/10 11:07:34;;;;;;;1.75;1.10;;;;;;;;;;4989884;28;20022;-51
2021/06/10 11:10:01;;;;;;;1.88;1.20;;;;;;;;;;4991237;28;20031;-52
2021/06/10 11:12:50;;;;;;;1.33;0.98;;;;;;;;;;4991833;28;20440;-50
2021/06/10 11:15:23;;;;;;;1.80;1.00;;;;;;;;;;4968560;28;20494;-51
2021/06/10 11:17:55;;;;;;;1.30;0.90;;;;;;;;;;4972455;28;20049;-51
2021/06/10 11:20:40;;;;;;;2.90;1.48;;;;;;;;;;4991235;28;20040;-51
2021/06/10 11:23:19;;;;;;;1.65;1.17;;;;;;;;;;4979781;28;20014;-54
2021/06/10 11:25:46;;;;;;;1.65;1.20;;;;;;;;;;4991190;28;20498;-51
2021/06/10 11:28:19;;;;;;;1.30;1.08;;;;;;;;;;4973066;28;20030;-53
2021/06/10 11:30:46;;;;;;;1.40;1.10;;;;;;;;;;4977353;28;20036;-50
2021/06/10 11:33:12;;;;;;;;;;;;;;;;;;4974260;28;20027;-51
2021/06/10 11:35:46;;;;;;;1.63;1.27;;;;;;;;;;4991312;28;19902;-50
2021/06/10 11:38:18;;;;;;;1.20;0.90;;;;;;;;;;4973378;28;20026;-51
2021/06/10 11:40:46;;;;;;;1.50;1.20;;;;;;;;;;4971888;28;20061;-49
2021/06/10 11:43:13;;;;;;;1.73;0.90;;;;;;;;;;4989489;28;20165;-50
2021/06/10 11:45:42;;;;;;;2.78;1.35;;;;;;;;;;4999391;28;20022;-49
2021/06/10 11:48:08;;;;;;;1.60;1.27;;;;;;;;;;4991239;28;20104;-47
2021/06/10 11:50:38;;;;;;;2.93;1.20;;;;;;;;;;4999702;28;20025;-49
2021/06/10 11:53:11;;;;;;;2.47;1.17;;;;;;;;;;4990767;28;20253;-48
2021/06/10 11:55:37;;;;;;;1.50;1.15;;;;;;;;;;4982125;28;20053;-48
2021/06/10 11:58:05;;;;;;;1.80;1.10;;;;;;;;;;4990159;28;20352;-49
2021/06/10 12:00:32;;;;;;;1.40;1.08;;;;;;;;;;4990765;28;20027;-47
2021/06/10 12:03:00;;;;;;;1.70;1.13;;;;;;;;;;4992045;28;20490;-46
2021/06/10 12:05:27;;;;;;;1.38;1.10;;;;;;;;;;4996613;28;20037;-52
2021/06/10 12:08:12;;;;;;;2.00;1.42;;;;;;;;;;4983228;28;20031;-49
2021/06/10 12:10:40;;;;;;;1.83;1.20;;;;;;;;;;4983529;28;20058;-57
2021/06/10 12:13:06;;;;;;;2.08;1.67;;;;;;;;;;4989894;28;20041;-56
2021/06/10 12:15:34;;;;;;;1.75;1.50;;;;;;;;;;4990149;28;20116;-57
2021/06/10 12:18:02;;;;;;;1.65;1.20;;;;;;;;;;4972619;28;20038;-58
2021/06/10 12:20:35;;;;;;;1.70;1.30;;;;;;;;;;4990086;28;20483;-58
2021/06/10 12:23:03;;;;;;;1.90;1.30;;;;;;;;;;4972735;28;20479;-57
2021/06/10 12:25:32;;;;;;;2.05;1.33;;;;;;;;;;4989243;28;20416;-58
2021/06/10 12:27:59;;;;;;;1.90;1.38;;;;;;;;;;4990712;28;20098;-57
2021/06/10 12:30:25;;;;;;;;;;;;;;;;;;4973004;28;20516;-58
2021/06/10 12:32:51;;;;;;;1.70;1.10;;;;;;;;;;4982198;28;19905;-61
2021/06/10 12:35:21;;;;;;;1.80;1.00;;;;;;;;;;4990742;28;20102;-58
2021/06/10 12:37:52;;;;;;;2.63;1.48;;;;;;;;;;4989396;28;20117;-58
2021/06/10 12:40:18;;;;;;;2.70;1.20;;;;;;;;;;4956684;28;20498;-62
2021/06/10 12:43:19;;;;;;;1.73;1.25;;;;;;;;;;4973011;28;20080;-57
2021/06/10 12:45:45;;;;;;;1.83;1.30;;;;;;;;;;4945489;28;20120;-60
2021/06/10 12:48:25;;;;;;;1.55;1.25;;;;;;;;;;4990514;28;20043;-58
2021/06/10 12:50:52;;;;;;;2.08;1.08;;;;;;;;;;4960383;28;20022;-57
2021/06/10 12:53:19;;;;;;;2.03;1.20;;;;;;;;;;4972362;28;20182;-57
2021/06/10 12:55:45;;;;;;;;;;;;;;;;;;4990324;28;20105;-44
2021/06/10 12:58:18;;;;;;;3.25;1.70;;;;;;;;;;4995975;28;20214;-49
2021/06/10 13:00:47;;;;;;;3.17;1.38;;;;;;;;;;4980629;28;20027;-55
2021/06/10 13:03:13;;;;;;;2.95;1.80;;;;;;;;;;4982301;28;20076;-60
2021/06/10 13:05:39;;;;;;;1.90;1.50;;;;;;;;;;4968831;28;20023;-60
2021/06/10 13:08:06;;;;;;;1.80;1.50;;;;;;;;;;4990419;28;20157;-59
2021/06/10 13:10:40;;;;;;;2.50;1.50;;;;;;;;;;4970913;28;20030;-60
2021/06/10 13:13:08;;;;;;;1.92;1.60;;;;;;;;;;4990100;28;20086;-57
2021/06/10 13:15:35;;;;;;;2.17;1.42;;;;;;;;;;4989345;28;20022;-59
2021/06/10 13:18:02;;;;;;;;;;;;;;;;;;4971281;28;20043;-60
2021/06/10 13:20:41;;;;;;;2.00;1.67;;;;;;;;;;4989141;28;19964;-58
2021/06/10 13:23:09;;;;;;;2.30;1.58;;;;;;;;;;4968529;28;20335;-58
2021/06/10 13:25:35;;;;;;;2.45;1.60;;;;;;;;;;4971357;28;20112;-58
2021/06/10 13:28:15;;;;;;;3.63;1.83;;;;;;;;;;4988701;28;20095;-60
2021/06/10 13:30:41;;;;;;;2.28;1.63;;;;;;;;;;4989885;28;20118;-59
2021/06/10 13:33:08;;;;;;;2.10;1.40;;;;;;;;;;4974950;28;20112;-58
2021/06/10 13:35:41;;;;;;;1.70;1.40;;;;;;;;;;4975210;28;20345;-59
2021/06/10 13:38:09;;;;;;;2.45;1.48;;;;;;;;;;4975857;28;20034;-58
2021/06/10 13:40:35;;;;;;;2.45;1.40;;;;;;;;;;4975646;28;20022;-58
2021/06/10 13:43:01;;;;;;;1.70;1.58;;;;;;;;;;4993741;28;20034;-59
2021/06/10 13:45:30;;;;;;;2.00;1.63;;;;;;;;;;4998316;28;20443;-61
2021/06/10 13:47:57;;;;;;;3.00;1.50;;;;;;;;;;4974568;28;20052;-60
2021/06/10 13:50:23;;;;;;;2.13;1.73;;;;;;;;;;4974744;28;20030;-59
2021/06/10 13:52:49;;;;;;;1.90;1.40;;;;;;;;;;4993786;28;20474;-59
2021/06/10 13:55:16;;;;;;;1.60;1.50;;;;;;;;;;4992510;28;20042;-59
2021/06/10 13:57:42;;;;;;;1.83;1.50;;;;;;;;;;4975330;28;20054;-59
2021/06/10 14:00:10;;;;;;;2.35;1.50;;;;;;;;;;4994056;28;20050;-59
2021/06/10 14:02:37;;;;;;;1.92;1.40;;;;;;;;;;4979214;28;20042;-58
2021/06/10 14:05:03;;;;;;;1.65;1.30;;;;;;;;;;4994404;28;20508;-59
2021/06/10 14:07:29;;;;;;;3.10;1.40;;;;;;;;;;4973887;28;20030;-60
2021/06/10 14:09:55;;;;;;;2.13;1.40;;;;;;;;;;4992807;28;20233;-61
2021/06/10 14:12:21;;;;;;;2.00;1.42;;;;;;;;;;4992924;28;20030;-61
2021/06/10 14:14:47;;;;;;;1.50;1.20;;;;;;;;;;4992948;28;20018;-61
2021/06/10 14:17:13;;;;;;;1.80;1.50;;;;;;;;;;4992334;28;20104;-60
2021/06/10 14:19:40;;;;;;;1.75;1.40;;;;;;;;;;4993027;28;20034;-60
2021/06/10 14:22:06;;;;;;;1.93;1.50;;;;;;;;;;4992968;28;20059;-59
2021/06/10 14:24:33;;;;;;;1.87;1.20;;;;;;;;;;4992816;28;20272;-50
2021/06/10 14:26:59;;;;;;;3.08;1.30;;;;;;;;;;4978013;28;20028;-48
2021/06/10 14:29:42;;;;;;;2.87;1.83;;;;;;;;;;4991273;28;20030;-61
2021/06/10 14:32:21;;;;;;;2.17;1.92;;;;;;;;;;4990853;28;20038;-59
2021/06/10 14:34:52;;;;;;;1.60;1.35;;;;;;;;;;4990962;28;20034;-64
2021/06/10 14:37:19;;;;;;;2.88;1.55;;;;;;;;;;4990639;28;20034;-61
2021/06/10 14:39:45;;;;;;;;;;;;;;;;;;4974383;28;20084;-62
2021/06/10 14:42:13;;;;;;;2.25;1.45;;;;;;;;;;4972791;28;20004;-57
2021/06/10 14:44:39;;;;;;;1.55;1.30;;;;;;;;;;4973237;28;20165;-60
2021/06/10 14:47:05;;;;;;;2.13;1.30;;;;;;;;;;4974335;28;20143;-58
2021/06/10 14:49:32;;;;;;;2.03;1.83;;;;;;;;;;4991249;28;20033;-58
2021/06/10 14:51:58;;;;;;;1.93;1.60;;;;;;;;;;4991667;28;20036;-61
2021/06/10 14:54:24;;;;;;;1.60;1.50;;;;;;;;;;4975149;28;20282;-57
2021/06/10 14:56:50;;;;;;;2.77;1.60;;;;;;;;;;4991968;28;20124;-58
2021/06/10 14:59:16;;;;;;;2.60;1.58;;;;;;;;;;4973705;28;20045;-59
2021/06/10 15:01:42;;;;;;;2.03;1.43;;;;;;;;;;4990982;28;20026;-59
2021/06/10 15:04:08;;;;;;;2.20;1.40;;;;;;;;;;4974971;28;20053;-60
2021/06/10 15:06:35;;;;;;;2.50;1.60;;;;;;;;;;4990300;28;20022;-61
2021/06/10 15:09:01;;;;;;;1.52;1.35;;;;;;;;;;4974366;28;20018;-58
2021/06/10 15:11:27;;;;;;;1.60;1.40;;;;;;;;;;4991145;28;20014;-56
2021/06/10 15:13:53;;;;;;;3.08;1.50;;;;;;;;;;4973675;28;20367;-57
2021/06/10 15:16:19;;;;;;;1.80;1.50;;;;;;;;;;4973785;28;20113;-53
2021/06/10 15:18:46;;;;;;;1.90;1.60;;;;;;;;;;4973676;28;20045;-58
2021/06/10 15:21:12;;;;;;;1.63;1.50;;;;;;;;;;4973188;28;20789;-59
2021/06/10 15:23:39;;;;;;;1.93;1.53;;;;;;;;;;4990481;28;20104;-57
2021/06/10 15:26:07;;;;;;;1.53;1.30;;;;;;;;;;4990895;28;20761;-59
2021/06/10 15:28:33;;;;;;;1.90;1.38;;;;;;;;;;4973055;28;20472;-58
2021/06/10 15:31:00;;;;;;;2.50;1.30;;;;;;;;;;4990955;28;20038;-47
2021/06/10 15:33:26;;;;;;;3.78;2.05;;;;;;;;;;4969440;28;20274;-46
2021/06/10 15:35:52;;;;;;;2.57;1.70;;;;;;;;;;4990871;28;20022;-46
2021/06/10 15:38:19;;;;;;;2.20;1.70;;;;;;;;;;4990131;28;20304;-48
2021/06/10 15:40:45;;;;;;;2.53;1.90;;;;;;;;;;4989478;28;20113;-47
2021/06/10 15:43:11;;;;;;;1.77;1.48;;;;;;;;;;4990440;28;20274;-49
2021/06/10 15:45:37;;;;;;;2.05;1.55;;;;;;;;;;4992747;28;20042;-46
2021/06/10 15:48:04;;;;;;;1.80;1.60;;;;;;;;;;4988522;28;20037;-47
2021/06/10 15:50:30;;;;;;;1.95;1.70;;;;;;;;;;4990592;28;20449;-46
2021/06/10 15:52:56;;;;;;;3.20;1.60;;;;;;;;;;4971321;28;20018;-49
2021/06/10 15:55:22;;;;;;;1.63;1.40;;;;;;;;;;4987431;28;20046;-48
2021/06/10 15:57:48;;;;;;;2.17;1.63;;;;;;;;;;4969737;28;20559;-45
2021/06/10 16:00:16;;;;;;;2.77;2.10;;;;;;;;;;4987740;28;20089;-46
2021/06/10 16:02:46;;;;;;;2.10;1.50;;;;;;;;;;4987943;28;20375;-49
2021/06/10 16:05:15;;;;;;;2.75;1.60;;;;;;;;;;4989935;28;20037;-55
2021/06/10 16:07:42;;;;;;;1.95;1.40;;;;;;;;;;4987961;28;20088;-58
2021/06/10 16:10:08;;;;;;;5.50;1.77;;;;;;;;;;4990220;28;20113;-57
2021/06/10 16:12:34;;;;;;;1.90;1.63;;;;;;;;;;4971925;28;20090;-56
2021/06/10 16:15:01;;;;;;;3.13;2.20;;;;;;;;;;4989722;28;20011;-45
2021/06/10 16:17:27;;;;;;;3.13;1.73;;;;;;;;;;4972486;28;20022;-46
2021/06/10 16:19:53;;;;;;;4.63;1.73;;;;;;;;;;4991121;28;20072;-52
2021/06/10 20:22:27;;;;;;;3.05;2.53;;;;;;;;;;5509069;22;20127;-51
2021/06/10 20:24:54;;;;;;;5.88;2.83;;;;;;;;;;5014522;28;20037;-56
2021/06/10 20:32:32;;;;;;;7.82;2.20;;;;;;;;;;5030306;28;20041;-58
2021/06/10 20:34:58;;;;;;;4.53;2.00;;;;;;;;;;5026165;28;20028;-54
2021/06/10 20:37:24;;;;;;;4.18;1.75;;;;;;;;;;5011473;28;20463;-55
2021/06/10 20:39:51;;;;;;;2.78;1.48;;;;;;;;;;5009755;28;20073;-54
2021/06/10 20:42:18;;;;;;;1.92;1.40;;;;;;;;;;5028903;28;20022;-55
2021/06/10 20:44:44;;;;;;;4.32;1.70;;;;;;;;;;5011134;28;20124;-55
2021/06/10 20:47:10;;;;;;;3.37;1.40;;;;;;;;;;5029421;28;20047;-56
2021/06/10 20:49:36;;;;;;;2.10;1.20;;;;;;;;;;5026187;28;20454;-54
2021/06/10 20:52:03;;;;;;;2.50;0.90;;;;;;;;;;5011168;28;20030;-57
2021/06/10 20:54:29;;;;;;;1.42;0.90;;;;;;;;;;5026889;28;20041;-59
2021/06/10 20:56:55;;;;;;;2.03;1.07;;;;;;;;;;5028327;28;20028;-56
2021/06/10 20:59:21;;;;;;;2.70;0.90;;;;;;;;;;5029108;28;20388;-56
2021/06/10 21:01:47;;;;;;;3.27;0.70;;;;;;;;;;5011166;28;20044;-55
2021/06/10 21:04:15;;;;;;;3.03;1.27;;;;;;;;;;5007851;28;20335;-62
